createdAt,value
2022-11-12T00:00:39.362Z,6.30
2022-11-12T00:03:06.119Z,6.30
2022-11-12T00:05:32.830Z,6.30
2022-11-12T00:07:59.564Z,6.30
2022-11-12T00:10:26.097Z,6.30
2022-11-12T00:12:53.173Z,6.30
2022-11-12T00:15:19.749Z,6.20
2022-11-12T00:17:46.332Z,6.20
2022-11-12T00:20:12.919Z,6.20
2022-11-12T00:22:39.534Z,6.20
2022-11-12T00:25:06.336Z,6.20
2022-11-12T00:27:33.389Z,6.20
2022-11-12T00:29:59.918Z,6.20
2022-11-12T00:32:26.772Z,6.10
2022-11-12T00:34:53.851Z,6.10
2022-11-12T00:37:20.932Z,6.00
2022-11-12T00:39:47.457Z,5.90
2022-11-12T00:42:14.012Z,5.90
2022-11-12T00:44:40.596Z,6.00
2022-11-12T00:47:07.123Z,6.00
2022-11-12T00:49:33.639Z,5.90
2022-11-12T00:52:00.222Z,5.80
2022-11-12T00:54:27.012Z,5.80
2022-11-12T00:56:53.544Z,5.90
2022-11-12T00:59:20.063Z,5.80
2022-11-12T01:01:46.610Z,5.70
2022-11-12T01:04:13.209Z,5.70
2022-11-12T01:06:40.844Z,5.90
2022-11-12T01:09:08.256Z,5.70
2022-11-12T01:11:34.886Z,5.70
2022-11-12T01:14:02.642Z,5.70
2022-11-12T01:16:30.344Z,5.70
2022-11-12T01:18:58.302Z,5.50
2022-11-12T01:21:27.662Z,5.50
2022-11-12T01:23:54.302Z,5.50
2022-11-12T01:26:22.036Z,5.50
2022-11-12T01:28:48.832Z,5.50
2022-11-12T01:31:15.404Z,5.50
2022-11-12T01:33:42.524Z,5.50
2022-11-12T01:36:09.778Z,5.50
2022-11-12T01:38:37.456Z,5.60
2022-11-12T01:41:04.526Z,5.60
2022-11-12T01:43:31.051Z,5.70
2022-11-12T01:45:58.804Z,5.60
2022-11-12T01:48:28.064Z,5.60
2022-11-12T01:50:55.175Z,5.60
2022-11-12T01:53:22.585Z,5.60
2022-11-12T01:55:49.224Z,5.60
2022-11-12T01:58:16.898Z,5.70
2022-11-12T02:00:43.534Z,5.60
2022-11-12T02:03:15.331Z,5.70
2022-11-12T02:05:42.464Z,5.70
2022-11-12T02:08:11.002Z,5.70
2022-11-12T02:10:38.923Z,5.80
2022-11-12T02:13:24.766Z,5.80
2022-11-12T02:15:51.721Z,5.80
2022-11-12T02:18:18.513Z,5.80
2022-11-12T02:20:45.101Z,5.70
2022-11-12T02:23:11.801Z,5.70
2022-11-12T02:25:38.316Z,5.70
2022-11-12T02:28:06.444Z,5.80
2022-11-12T02:30:32.937Z,5.80
2022-11-12T02:32:59.689Z,5.80
2022-11-12T02:35:26.492Z,5.80
2022-11-12T02:37:53.030Z,5.90
2022-11-12T02:40:19.553Z,5.80
2022-11-12T02:42:46.056Z,5.90
2022-11-12T02:45:12.969Z,5.80
2022-11-12T02:47:39.636Z,5.80
2022-11-12T02:50:06.398Z,5.90
2022-11-12T02:52:32.997Z,5.90
2022-11-12T02:54:59.518Z,5.90
2022-11-12T02:57:26.200Z,5.80
2022-11-12T02:59:52.731Z,5.80
2022-11-12T03:02:19.268Z,5.90
2022-11-12T03:04:49.396Z,5.80
2022-11-12T03:07:16.384Z,5.80
2022-11-12T03:09:43.086Z,5.80
2022-11-12T03:12:09.688Z,5.80
2022-11-12T03:14:36.451Z,5.80
2022-11-12T03:17:03.269Z,6.10
2022-11-12T03:19:29.805Z,5.80
2022-11-12T03:21:56.360Z,5.70
2022-11-12T03:24:22.913Z,5.80
2022-11-12T03:26:49.469Z,5.70
2022-11-12T03:29:16.212Z,5.70
2022-11-12T03:31:42.706Z,5.70
2022-11-12T03:34:10.409Z,5.80
2022-11-12T03:36:36.913Z,5.70
2022-11-12T03:39:03.588Z,5.70
2022-11-12T03:41:30.122Z,5.70
2022-11-12T03:43:56.629Z,5.70
2022-11-12T03:46:23.149Z,5.70
2022-11-12T03:48:49.669Z,5.60
2022-11-12T03:51:17.271Z,5.60
2022-11-12T03:53:43.788Z,5.60
2022-11-12T03:56:10.292Z,5.60
2022-11-12T03:58:36.831Z,5.60
2022-11-12T04:01:03.538Z,5.60
2022-11-12T04:03:30.107Z,5.60
2022-11-12T04:06:15.295Z,5.60
2022-11-12T04:08:41.977Z,5.60
2022-11-12T04:11:16.217Z,5.50
2022-11-12T04:13:43.384Z,5.50
2022-11-12T04:16:29.990Z,5.50
2022-11-12T04:19:16.516Z,5.50
2022-11-12T04:21:56.590Z,5.60
2022-11-12T04:24:46.666Z,5.60
2022-11-12T04:27:15.061Z,5.90
2022-11-12T04:33:09.652Z,5.50
2022-11-12T04:35:36.194Z,5.40
2022-11-12T04:38:02.868Z,5.40
2022-11-12T04:40:48.231Z,5.40
2022-11-12T04:43:34.908Z,5.40
2022-11-12T04:46:02.358Z,5.30
2022-11-12T04:48:29.544Z,5.20
2022-11-12T04:51:00.439Z,5.20
2022-11-12T04:53:27.529Z,5.10
2022-11-12T04:55:54.962Z,5.10
2022-11-12T04:58:21.650Z,5.00
2022-11-12T05:00:49.152Z,5.00
2022-11-12T05:03:16.377Z,5.00
2022-11-12T05:05:42.929Z,4.90
2022-11-12T05:08:09.565Z,4.90
2022-11-12T05:10:36.165Z,4.80
2022-11-12T05:13:02.806Z,4.80
2022-11-12T05:15:29.392Z,4.80
2022-11-12T05:17:56.039Z,4.80
2022-11-12T05:20:22.628Z,4.70
2022-11-12T05:23:05.117Z,4.70
2022-11-12T05:25:33.361Z,4.70
2022-11-12T05:27:59.912Z,4.70
2022-11-12T05:30:26.427Z,4.70
2022-11-12T05:32:53.059Z,4.60
2022-11-12T05:35:19.578Z,4.60
2022-11-12T05:37:46.098Z,4.60
2022-11-12T05:40:12.872Z,4.60
2022-11-12T05:42:39.393Z,4.50
2022-11-12T05:45:06.354Z,4.40
2022-11-12T05:47:32.909Z,4.60
2022-11-12T05:49:59.397Z,4.40
2022-11-12T05:52:26.085Z,4.40
2022-11-12T05:54:52.698Z,4.40
2022-11-12T05:57:19.253Z,4.30
2022-11-12T05:59:45.759Z,4.30
2022-11-12T06:02:12.327Z,4.30
2022-11-12T06:04:38.895Z,4.30
2022-11-12T06:07:05.491Z,4.20
2022-11-12T06:09:32.135Z,4.20
2022-11-12T06:11:58.764Z,4.20
2022-11-12T06:14:25.318Z,4.10
2022-11-12T06:16:51.817Z,4.10
2022-11-12T06:19:18.404Z,4.10
2022-11-12T06:21:44.912Z,4.10
2022-11-12T06:24:11.683Z,4.10
2022-11-12T06:26:38.310Z,4.00
2022-11-12T06:29:04.873Z,4.00
2022-11-12T06:31:31.368Z,4.00
2022-11-12T06:33:57.858Z,4.00
2022-11-12T06:36:24.506Z,4.00
2022-11-12T06:38:51.060Z,4.00
2022-11-12T06:41:17.874Z,3.90
2022-11-12T06:43:44.562Z,3.70
2022-11-12T06:46:12.260Z,4.00
2022-11-12T06:48:39.085Z,4.00
2022-11-12T06:51:09.914Z,4.10
2022-11-12T06:53:36.458Z,4.20
2022-11-12T06:56:04.336Z,4.20
2022-11-12T06:58:30.957Z,4.30
2022-11-12T07:00:57.717Z,4.30
2022-11-12T07:03:24.275Z,4.40
2022-11-12T07:05:50.839Z,4.60
2022-11-12T07:08:17.345Z,4.50
2022-11-12T07:10:43.869Z,4.60
2022-11-12T07:13:10.415Z,4.70
2022-11-12T07:15:36.930Z,4.80
2022-11-12T07:18:03.476Z,5.00
2022-11-12T07:20:30.078Z,5.10
2022-11-12T07:22:59.785Z,5.20
2022-11-12T07:25:26.299Z,5.30
2022-11-12T07:27:53.187Z,5.40
2022-11-12T07:30:19.725Z,5.50
2022-11-12T07:32:51.676Z,5.60
2022-11-12T07:35:18.647Z,5.80
2022-11-12T07:37:45.231Z,6.00
2022-11-12T07:40:11.856Z,6.20
2022-11-12T07:42:38.415Z,6.40
2022-11-12T07:45:05.355Z,6.60
2022-11-12T07:47:31.893Z,6.90
2022-11-12T07:49:58.425Z,7.20
2022-11-12T07:52:25.114Z,7.40
2022-11-12T07:54:51.665Z,7.80
2022-11-12T07:57:18.298Z,8.00
2022-11-12T07:59:46.391Z,8.20
2022-11-12T08:02:13.300Z,8.60
2022-11-12T08:04:39.869Z,8.90
2022-11-12T08:07:06.700Z,9.00
2022-11-12T08:09:33.372Z,9.00
2022-11-12T08:11:59.963Z,9.60
2022-11-12T08:14:26.623Z,9.80
2022-11-12T08:16:53.203Z,10.20
2022-11-12T08:19:19.761Z,10.60
2022-11-12T08:21:46.316Z,11.10
2022-11-12T08:24:12.813Z,11.30
2022-11-12T08:26:39.331Z,11.50
2022-11-12T08:29:08.660Z,11.60
2022-11-12T08:31:35.498Z,11.60
2022-11-12T08:34:11.972Z,11.80
2022-11-12T08:36:39.215Z,11.90
2022-11-12T08:39:06.752Z,12.30
2022-11-12T08:41:33.775Z,12.20
2022-11-12T08:44:04.247Z,12.80
2022-11-12T08:46:34.764Z,13.10
2022-11-12T08:49:01.311Z,13.30
2022-11-12T08:51:27.847Z,13.40
2022-11-12T08:53:54.510Z,14.10
2022-11-12T08:56:21.413Z,14.30
2022-11-12T08:58:47.961Z,14.60
2022-11-12T09:01:14.563Z,14.80
2022-11-12T09:03:41.188Z,15.60
2022-11-12T09:06:07.876Z,16.50
2022-11-12T09:08:35.168Z,17.00
2022-11-12T09:11:01.795Z,17.30
2022-11-12T09:13:28.406Z,17.60
2022-11-12T09:15:59.244Z,18.60
2022-11-12T09:18:26.205Z,19.30
2022-11-12T09:20:53.011Z,18.80
2022-11-12T09:23:19.662Z,19.20
2022-11-12T09:25:46.221Z,19.30
2022-11-12T09:28:17.021Z,19.10
2022-11-12T09:30:46.321Z,19.50
2022-11-12T09:33:16.942Z,19.90
2022-11-12T09:35:44.002Z,20.20
2022-11-12T09:38:10.567Z,20.90
2022-11-12T09:40:40.682Z,20.10
2022-11-12T09:43:28.753Z,19.80
2022-11-12T09:46:13.970Z,19.70
2022-11-12T09:48:46.064Z,19.60
2022-11-12T09:51:18.857Z,19.30
2022-11-12T09:53:58.285Z,19.60
2022-11-12T09:56:25.535Z,20.10
2022-11-12T09:58:52.549Z,19.70
2022-11-12T10:01:21.892Z,20.10
2022-11-12T10:03:55.447Z,19.80
2022-11-12T10:06:23.912Z,19.90
2022-11-12T10:08:58.610Z,20.40
2022-11-12T10:12:04.460Z,20.60
2022-11-12T10:14:50.215Z,21.00
2022-11-12T10:17:16.780Z,20.30
2022-11-12T10:19:53.331Z,19.70
2022-11-12T10:22:35.952Z,19.60
2022-11-12T10:25:16.333Z,19.60
2022-11-12T10:27:43.237Z,19.10
2022-11-12T10:30:14.704Z,19.20
2022-11-12T10:32:42.799Z,18.80
2022-11-12T10:35:10.626Z,18.00
2022-11-12T10:37:42.465Z,17.70
2022-11-12T10:40:21.762Z,17.50
2022-11-12T10:42:58.736Z,17.30
2022-11-12T10:45:25.338Z,17.10
2022-11-12T10:47:51.894Z,16.70
2022-11-12T10:50:18.789Z,16.50
2022-11-12T10:52:55.798Z,16.20
2022-11-12T10:55:24.024Z,16.00
2022-11-12T10:58:09.369Z,16.10
2022-11-12T11:00:36.469Z,16.20
2022-11-12T11:03:17.113Z,16.30
2022-11-12T11:05:58.280Z,16.30
2022-11-12T11:08:37.286Z,16.30
2022-11-12T11:11:16.156Z,16.30
2022-11-12T11:13:43.523Z,16.20
2022-11-12T11:16:17.773Z,16.40
2022-11-12T11:18:57.827Z,16.40
2022-11-12T11:21:43.142Z,16.50
2022-11-12T11:24:10.773Z,16.60
2022-11-12T11:26:42.452Z,16.50
2022-11-12T11:29:19.805Z,16.50
2022-11-12T11:31:54.044Z,16.40
2022-11-12T11:34:25.811Z,16.50
2022-11-12T11:37:00.680Z,16.70
2022-11-12T11:39:35.614Z,16.60
2022-11-12T11:42:20.695Z,16.70
2022-11-12T11:44:47.206Z,17.00
2022-11-12T11:47:50.429Z,16.80
2022-11-12T11:50:29.568Z,16.80
2022-11-12T11:53:15.198Z,17.10
2022-11-12T11:56:03.064Z,17.40
2022-11-12T11:58:29.709Z,17.60
2022-11-12T12:01:01.353Z,17.70
2022-11-12T12:03:38.200Z,17.80
2022-11-12T12:06:18.576Z,17.50
2022-11-12T12:08:51.451Z,17.60
2022-11-12T12:11:22.546Z,17.80
2022-11-12T12:14:04.365Z,17.70
2022-11-12T12:16:37.046Z,17.60
2022-11-12T12:19:03.610Z,17.50
2022-11-12T12:21:32.243Z,17.40
2022-11-12T12:24:07.154Z,17.70
2022-11-12T12:26:40.005Z,17.60
2022-11-12T12:29:25.366Z,17.70
2022-11-12T12:31:53.425Z,17.50
2022-11-12T12:34:29.023Z,17.30
2022-11-12T12:37:01.684Z,17.20
2022-11-12T12:39:37.728Z,17.00
2022-11-12T12:42:06.260Z,17.30
2022-11-12T12:44:57.330Z,16.90
2022-11-12T12:47:23.916Z,16.90
2022-11-12T12:49:50.679Z,16.70
2022-11-12T12:52:17.229Z,16.70
2022-11-12T12:54:52.780Z,16.70
2022-11-12T12:57:27.421Z,16.80
2022-11-12T13:00:15.505Z,16.80
2022-11-12T13:02:42.384Z,16.70
2022-11-12T13:05:23.278Z,16.60
2022-11-12T13:07:50.545Z,16.60
2022-11-12T13:10:35.884Z,16.50
2022-11-12T13:13:05.540Z,16.50
2022-11-12T13:15:41.385Z,16.40
2022-11-12T13:18:12.839Z,16.30
2022-11-12T13:20:42.720Z,16.40
2022-11-12T13:23:10.450Z,16.50
2022-11-12T13:25:37.286Z,16.50
2022-11-12T13:28:04.924Z,16.40
2022-11-12T13:30:31.746Z,16.40
2022-11-12T13:32:58.948Z,16.30
2022-11-12T13:35:28.298Z,16.20
2022-11-12T13:38:03.901Z,16.10
2022-11-12T13:40:30.575Z,16.10
2022-11-12T13:42:58.911Z,15.90
2022-11-12T13:45:27.036Z,16.00
2022-11-12T13:47:53.544Z,15.90
2022-11-12T13:50:22.113Z,15.70
2022-11-12T13:52:49.202Z,15.70
2022-11-12T13:55:16.877Z,15.60
2022-11-12T13:57:50.054Z,15.60
2022-11-12T14:00:16.597Z,15.50
2022-11-12T14:02:47.887Z,15.50
2022-11-12T14:05:15.835Z,15.40
2022-11-12T14:08:01.289Z,15.30
2022-11-12T14:10:46.695Z,15.30
2022-11-12T14:13:32.207Z,15.30
2022-11-12T14:16:14.067Z,15.20
2022-11-12T14:18:59.579Z,15.00
2022-11-12T14:21:26.174Z,14.90
2022-11-12T14:23:52.836Z,14.90
2022-11-12T14:26:34.673Z,14.90
2022-11-12T14:29:01.363Z,14.90
2022-11-12T14:31:27.938Z,14.70
2022-11-12T14:33:54.499Z,14.70
2022-11-12T14:36:21.511Z,14.60
2022-11-12T14:38:50.399Z,14.50
2022-11-12T14:41:24.690Z,14.40
2022-11-12T14:44:10.982Z,14.40
2022-11-12T14:46:43.392Z,14.10
2022-11-12T14:49:19.169Z,14.10
2022-11-12T14:51:50.520Z,13.90
2022-11-12T14:54:25.687Z,13.80
2022-11-12T14:56:52.507Z,13.60
2022-11-12T14:59:19.181Z,13.60
2022-11-12T15:04:52.191Z,13.50
2022-11-12T15:07:23.407Z,13.40
2022-11-12T15:09:50.058Z,13.20
2022-11-12T15:12:34.883Z,13.10
2022-11-12T15:15:18.016Z,12.90
2022-11-12T15:17:44.585Z,12.70
2022-11-12T15:20:13.503Z,12.60
2022-11-12T15:22:40.117Z,12.50
2022-11-12T15:25:16.013Z,12.40
2022-11-12T15:27:43.061Z,12.20
2022-11-12T15:30:18.426Z,12.20
2022-11-12T15:32:45.278Z,12.00
2022-11-12T15:35:21.522Z,12.00
2022-11-12T15:37:48.164Z,11.90
2022-11-12T15:40:19.012Z,11.80
2022-11-12T15:42:45.757Z,11.70
2022-11-12T15:45:16.884Z,11.50
2022-11-12T15:47:43.604Z,11.50
2022-11-12T15:50:13.010Z,11.40
2022-11-12T15:52:39.793Z,11.30
2022-11-12T15:55:06.553Z,11.20
2022-11-12T15:57:34.318Z,11.10
2022-11-12T16:00:07.830Z,11.00
2022-11-12T16:02:35.269Z,10.80
2022-11-12T16:05:01.975Z,10.70
2022-11-12T16:07:28.600Z,10.60
2022-11-12T16:09:55.194Z,10.50
2022-11-12T16:12:21.775Z,10.40
2022-11-12T16:14:48.312Z,10.30
2022-11-12T16:17:15.913Z,10.20
2022-11-12T16:19:42.476Z,10.20
2022-11-12T16:22:12.689Z,10.10
2022-11-12T16:24:39.976Z,10.00
2022-11-12T16:27:07.658Z,10.00
2022-11-12T16:29:35.018Z,9.90
2022-11-12T16:32:02.584Z,9.80
2022-11-12T16:34:29.420Z,9.80
2022-11-12T16:36:56.581Z,9.70
2022-11-12T16:39:23.139Z,9.70
2022-11-12T16:41:49.684Z,9.60
2022-11-12T16:44:16.250Z,9.50
2022-11-12T16:46:43.813Z,9.50
2022-11-12T16:49:13.948Z,9.40
2022-11-12T16:51:40.900Z,9.30
2022-11-12T16:54:07.864Z,9.30
2022-11-12T16:56:34.546Z,9.20
2022-11-12T16:59:01.234Z,9.20
2022-11-12T17:01:29.123Z,9.10
2022-11-12T17:03:56.266Z,9.10
2022-11-12T17:06:23.988Z,8.90
2022-11-12T17:08:54.317Z,8.90
2022-11-12T17:11:20.875Z,8.80
2022-11-12T17:13:47.384Z,8.80
2022-11-12T17:16:14.236Z,8.70
2022-11-12T17:18:40.849Z,8.70
2022-11-12T17:21:08.426Z,8.60
2022-11-12T17:23:35.057Z,8.60
2022-11-12T17:26:02.656Z,8.50
2022-11-12T17:28:30.174Z,8.50
2022-11-12T17:31:07.851Z,8.40
2022-11-12T17:33:37.501Z,8.30
2022-11-12T17:36:04.566Z,8.30
2022-11-12T17:38:31.201Z,8.20
2022-11-12T17:40:58.185Z,8.20
2022-11-12T17:43:25.317Z,8.10
2022-11-12T17:45:52.646Z,8.10
2022-11-12T17:48:19.393Z,8.00
2022-11-12T17:50:46.370Z,8.00
2022-11-12T17:53:13.454Z,7.90
2022-11-12T17:55:39.968Z,7.90
2022-11-12T17:58:06.754Z,7.90
2022-11-12T18:00:33.984Z,7.90
2022-11-12T18:03:00.528Z,7.80
2022-11-12T18:05:27.145Z,7.70
2022-11-12T18:07:53.694Z,7.80
2022-11-12T18:10:20.211Z,7.80
2022-11-12T18:12:46.739Z,7.80
2022-11-12T18:15:13.281Z,7.70
2022-11-12T18:17:39.894Z,7.70
2022-11-12T18:20:06.750Z,7.70
2022-11-12T18:22:33.533Z,7.60
2022-11-12T18:25:00.103Z,7.30
2022-11-12T18:27:26.663Z,7.50
2022-11-12T18:29:53.245Z,7.50
2022-11-12T18:32:19.875Z,7.40
2022-11-12T18:34:46.444Z,7.40
2022-11-12T18:37:13.290Z,7.30
2022-11-12T18:39:39.988Z,7.30
2022-11-12T18:42:06.519Z,7.20
2022-11-12T18:44:33.063Z,7.20
2022-11-12T18:46:59.578Z,7.10
2022-11-12T18:49:26.125Z,7.10
2022-11-12T18:51:52.685Z,7.00
2022-11-12T18:54:19.229Z,6.90
2022-11-12T18:56:45.869Z,7.00
2022-11-12T18:59:12.500Z,6.90
2022-11-12T19:01:39.089Z,6.90
2022-11-12T19:04:06.301Z,6.80
2022-11-12T19:06:33.057Z,6.90
2022-11-12T19:09:00.384Z,6.80
2022-11-12T19:11:26.884Z,6.80
2022-11-12T19:13:54.406Z,6.80
2022-11-12T19:16:22.643Z,6.80
2022-11-12T19:18:49.820Z,6.70
2022-11-12T19:21:18.446Z,6.70
2022-11-12T19:23:50.025Z,6.70
2022-11-12T19:26:19.570Z,6.70
2022-11-12T19:28:46.252Z,6.70
2022-11-12T19:31:14.475Z,6.70
2022-11-12T19:33:41.061Z,6.70
2022-11-12T19:36:08.831Z,6.60
2022-11-12T19:38:35.388Z,6.50
2022-11-12T19:41:05.006Z,6.50
2022-11-12T19:43:31.743Z,6.50
2022-11-12T19:45:58.277Z,6.50
2022-11-12T19:48:25.096Z,6.40
2022-11-12T19:50:52.240Z,6.40
2022-11-12T19:53:19.009Z,6.30
2022-11-12T19:55:45.551Z,6.30
2022-11-12T19:58:12.074Z,6.20
2022-11-12T20:00:38.602Z,6.20
2022-11-12T20:03:05.151Z,6.20
2022-11-12T20:05:31.770Z,6.20
2022-11-12T20:07:58.314Z,6.20
2022-11-12T20:10:24.936Z,6.10
2022-11-12T20:12:51.520Z,6.10
2022-11-12T20:15:18.098Z,6.10
2022-11-12T20:17:44.615Z,6.10
2022-11-12T20:20:11.339Z,6.10
2022-11-12T20:22:37.939Z,6.10
2022-11-12T20:25:04.623Z,6.10
2022-11-12T20:27:31.137Z,6.10
2022-11-12T20:29:57.777Z,6.10
2022-11-12T20:32:24.351Z,6.00
2022-11-12T20:34:50.903Z,6.10
2022-11-12T20:37:18.482Z,6.10
2022-11-12T20:39:45.682Z,6.10
2022-11-12T20:42:12.235Z,6.20
2022-11-12T20:44:38.822Z,6.20
2022-11-12T20:47:05.345Z,6.20
2022-11-12T20:49:31.848Z,6.30
2022-11-12T20:51:58.419Z,6.30
2022-11-12T20:54:25.062Z,6.30
2022-11-12T20:56:51.639Z,6.30
2022-11-12T20:59:18.178Z,6.30
2022-11-12T21:01:44.913Z,6.30
2022-11-12T21:04:12.324Z,6.40
2022-11-12T21:06:39.030Z,6.40
2022-11-12T21:09:05.582Z,6.40
2022-11-12T21:11:32.103Z,6.40
2022-11-12T21:13:59.862Z,6.40
2022-11-12T21:16:26.521Z,6.40
2022-11-12T21:18:53.150Z,6.40
2022-11-12T21:21:21.167Z,6.40
2022-11-12T21:23:50.184Z,6.50
2022-11-12T21:26:17.824Z,6.50
2022-11-12T21:28:45.192Z,6.50
2022-11-12T21:31:13.169Z,6.50
2022-11-12T21:33:39.877Z,6.40
2022-11-12T21:36:09.462Z,6.40
2022-11-12T21:38:39.834Z,6.40
2022-11-12T21:41:06.404Z,6.40
2022-11-12T21:43:37.222Z,6.40
2022-11-12T21:46:06.905Z,6.40
2022-11-12T21:48:33.473Z,6.40
2022-11-12T21:51:04.564Z,6.40
2022-11-12T21:53:31.105Z,6.40
2022-11-12T21:56:01.500Z,6.40
2022-11-12T21:58:29.190Z,6.40
2022-11-12T22:00:55.991Z,6.30
2022-11-12T22:03:22.575Z,6.30
2022-11-12T22:05:49.136Z,6.30
2022-11-12T22:08:15.705Z,6.40
2022-11-12T22:10:42.223Z,6.30
2022-11-12T22:15:55.347Z,6.20
2022-11-12T22:18:21.900Z,6.10
2022-11-12T22:21:05.396Z,6.00
2022-11-12T22:23:38.318Z,5.90
2022-11-12T22:26:06.092Z,5.80
2022-11-12T22:28:34.297Z,5.90
2022-11-12T22:31:08.335Z,5.90
2022-11-12T22:33:35.272Z,5.90
2022-11-12T22:36:02.694Z,5.90
2022-11-12T22:38:32.990Z,5.80
2022-11-12T22:41:06.714Z,5.90
2022-11-12T22:43:33.297Z,5.80
2022-11-12T22:46:07.088Z,5.90
2022-11-12T22:48:33.966Z,5.80
2022-11-12T22:51:05.067Z,5.90
2022-11-12T22:53:31.834Z,5.80
2022-11-12T22:56:02.231Z,5.80
2022-11-12T22:58:29.573Z,5.70
2022-11-12T23:00:56.358Z,5.70
2022-11-12T23:03:23.409Z,5.70
2022-11-12T23:05:55.868Z,5.60
2022-11-12T23:08:22.362Z,5.70
2022-11-12T23:10:48.851Z,5.60
2022-11-12T23:13:15.354Z,5.50
2022-11-12T23:15:42.594Z,5.40
2022-11-12T23:18:09.125Z,5.40
2022-11-12T23:20:35.657Z,5.30
2022-11-12T23:23:02.272Z,5.30
2022-11-12T23:25:29.266Z,5.30
2022-11-12T23:27:55.762Z,5.30
2022-11-12T23:30:22.293Z,5.20
2022-11-12T23:32:48.790Z,5.30
2022-11-12T23:35:15.333Z,5.30
2022-11-12T23:37:41.842Z,5.10
2022-11-12T23:40:09.263Z,5.20
2022-11-12T23:42:35.862Z,5.20
2022-11-12T23:45:02.691Z,5.20
2022-11-12T23:47:29.276Z,5.10
2022-11-12T23:49:55.794Z,5.20
2022-11-12T23:52:22.301Z,5.00
2022-11-12T23:54:48.955Z,4.90
2022-11-12T23:57:15.588Z,5.00
2022-11-12T23:59:42.184Z,5.00
